Time;durP1;ratioP1;P1;durP2;ratioP2;P2;SDS_P1;SDS_P2;PMS_P1;PMS_P2;Temp;Humidity;BMP_temperature;BMP_pressure;BME280_temperature;BME280_humidity;BME280_pressure;Samples;Min_cycle;Max_cycle;Signal;HPM_P1;HPM_P2
2022/01/08 00:03:40;;;;;;;10.63;6.93;;;0.90;96.10;;;;;;4924198;29;20032;-89
2022/01/08 00:06:47;;;;;;;;;;;0.90;96.10;;;;;;4941510;29;20709;-89
2022/01/08 00:20:06;;;;;;;11.40;6.28;;;1.00;96.00;;;;;;4916595;29;20127;-89
2022/01/08 00:22:41;;;;;;;;;;;;;;;;;;;;;
2022/01/08 00:25:34;;;;;;;13.32;7.60;;;0.90;96.10;;;;;;4912077;29;20038;-89
2022/01/08 00:31:39;;;;;;;14.50;7.45;;;0.90;96.10;;;;;;4926855;28;20024;-89
2022/01/08 00:34:08;;;;;;;10.52;6.97;;;0.90;96.10;;;;;;4944862;29;20130;-89
2022/01/08 00:39:47;;;;;;;14.02;7.07;;;1.00;96.10;;;;;;4948060;28;20097;-89
2022/01/08 00:42:13;;;;;;;14.63;7.50;;;1.10;96.00;;;;;;4943186;28;20110;-89
2022/01/08 00:44:41;;;;;;;14.13;7.57;;;1.10;96.00;;;;;;4945431;28;20095;-89
2022/01/08 00:47:07;;;;;;;15.95;7.07;;;1.10;96.00;;;;;;4937055;29;20042;-89
2022/01/08 00:49:32;;;;;;;13.77;7.25;;;1.10;95.90;;;;;;4950468;29;20023;-89
2022/01/08 00:52:02;;;;;;;12.70;7.43;;;1.00;95.90;;;;;;4951655;29;20031;-89
2022/01/08 00:54:28;;;;;;;14.48;7.78;;;1.00;96.00;;;;;;4948000;29;20036;-89
2022/01/08 00:56:59;;;;;;;10.50;6.72;;;1.00;96.00;;;;;;4941909;29;20047;-89
2022/01/08 00:59:53;;;;;;;14.95;7.25;;;1.00;95.90;;;;;;4954825;28;20042;-89
2022/01/08 01:02:43;;;;;;;14.02;7.40;;;1.10;95.90;;;;;;4942552;29;20101;-89
2022/01/08 01:05:17;;;;;;;12.93;7.43;;;1.10;95.90;;;;;;4955498;28;20495;-89
2022/01/08 01:07:42;;;;;;;11.10;6.78;;;1.00;95.90;;;;;;4948787;29;20031;-89
2022/01/08 01:10:18;;;;;;;14.13;8.05;;;1.00;95.90;;;;;;4956033;28;20035;-89
2022/01/08 01:12:48;;;;;;;13.45;8.45;;;1.00;95.90;;;;;;4945198;28;20094;-89
2022/01/08 01:15:15;;;;;;;14.50;8.15;;;1.00;95.90;;;;;;4937554;29;20034;-89
2022/01/08 01:18:11;;;;;;;;;;;;;;;;;;;;;
2022/01/08 01:20:56;;;;;;;13.45;7.50;;;1.00;96.00;;;;;;4946714;29;20038;-89
2022/01/08 01:23:29;;;;;;;12.95;7.28;;;1.00;96.00;;;;;;4947050;28;20039;-89
2022/01/08 01:26:00;;;;;;;11.85;6.97;;;1.00;96.00;;;;;;4936037;28;20468;-89
2022/01/08 01:47:02;;;;;;;14.43;8.20;;;1.00;96.00;;;;;;4940694;28;20167;-89
2022/01/08 01:49:41;;;;;;;10.63;7.57;;;1.00;96.00;;;;;;4952201;29;20027;-89
2022/01/08 01:52:08;;;;;;;12.48;7.03;;;1.00;96.00;;;;;;4936104;28;20559;-89
2022/01/08 01:54:35;;;;;;;14.13;8.60;;;1.00;96.00;;;;;;4957225;28;20031;-89
2022/01/08 01:57:02;;;;;;;13.18;8.45;;;1.00;96.00;;;;;;4951636;28;20035;-89
2022/01/08 01:59:30;;;;;;;12.07;7.13;;;1.10;95.90;;;;;;4947294;29;20059;-89
2022/01/08 02:02:01;;;;;;;14.80;8.80;;;1.10;95.90;;;;;;4946732;28;20036;-89
2022/01/08 02:04:27;;;;;;;14.23;8.45;;;1.10;95.90;;;;;;4941080;29;20507;-89
2022/01/08 02:06:53;;;;;;;15.68;8.90;;;1.00;95.80;;;;;;4936881;28;20019;-89
2022/01/08 02:09:19;;;;;;;12.55;8.35;;;1.10;95.70;;;;;;4943319;29;20501;-89
2022/01/08 02:11:57;;;;;;;10.40;6.57;;;1.10;95.70;;;;;;4950575;28;20035;-89
2022/01/08 02:14:23;;;;;;;13.30;8.43;;;1.10;95.60;;;;;;4951009;28;20019;-89
2022/01/08 02:16:51;;;;;;;15.00;7.95;;;1.10;95.60;;;;;;4941855;28;20022;-89
2022/01/08 02:19:17;;;;;;;15.43;9.15;;;1.10;95.40;;;;;;4951220;28;20023;-89
2022/01/08 02:21:56;;;;;;;18.27;9.05;;;1.10;95.50;;;;;;4944600;28;20040;-89
2022/01/08 02:24:22;;;;;;;17.60;9.52;;;1.10;95.60;;;;;;4947581;28;20110;-89
2022/01/08 02:27:06;;;;;;;14.30;9.32;;;1.10;95.50;;;;;;4952497;28;20032;-89
2022/01/08 02:29:34;;;;;;;13.93;9.10;;;1.10;95.60;;;;;;4943455;28;20020;-89
2022/01/08 02:32:08;;;;;;;19.38;10.00;;;1.10;95.70;;;;;;4952105;29;20032;-89
2022/01/08 02:34:37;;;;;;;16.80;9.73;;;1.10;95.70;;;;;;4956176;28;20126;-89
2022/01/08 02:37:04;;;;;;;14.20;9.23;;;1.10;95.70;;;;;;4942264;28;20030;-89
2022/01/08 02:39:40;;;;;;;;;;;;;;;;;;;;;
2022/01/08 02:42:14;;;;;;;19.63;9.40;;;1.10;95.70;;;;;;4952469;29;20035;-89
2022/01/08 02:44:54;;;;;;;;;;;;;;;;;;;;;
2022/01/08 02:47:21;;;;;;;16.67;9.60;;;1.10;95.60;;;;;;4952291;29;20032;-89
2022/01/08 02:49:52;;;;;;;22.70;10.52;;;1.20;95.40;;;;;;4939404;28;20075;-88
2022/01/08 02:52:22;;;;;;;17.65;10.23;;;1.20;95.20;;;;;;4954323;28;20487;-89
2022/01/08 02:54:48;;;;;;;17.95;9.85;;;1.20;95.10;;;;;;4953496;28;20051;-89
2022/01/08 02:57:19;;;;;;;19.27;10.98;;;1.20;95.10;;;;;;4951096;28;20035;-89
2022/01/08 02:59:45;;;;;;;17.77;11.30;;;1.20;95.10;;;;;;4942397;29;20063;-89
2022/01/08 03:02:13;;;;;;;19.17;10.77;;;1.20;95.10;;;;;;4964095;28;20046;-89
2022/01/08 03:04:39;;;;;;;18.42;10.98;;;1.20;95.20;;;;;;4956799;28;20046;-89
2022/01/08 03:07:05;;;;;;;19.17;12.15;;;1.20;95.20;;;;;;4950691;28;20109;-89
2022/01/08 03:09:34;;;;;;;18.98;12.10;;;1.20;95.20;;;;;;4959986;28;20127;-89
2022/01/08 03:11:59;;;;;;;22.77;12.05;;;1.20;95.20;;;;;;4967610;28;20023;-89
2022/01/08 03:14:30;;;;;;;23.35;13.73;;;1.30;95.30;;;;;;4947445;28;20031;-89
2022/01/08 03:17:00;;;;;;;19.38;11.57;;;1.20;95.30;;;;;;4946734;28;20081;-89
2022/01/08 03:19:38;;;;;;;;;;;;;;;;;;;;;
2022/01/08 03:22:14;;;;;;;17.83;11.00;;;1.30;95.20;;;;;;4937216;28;20375;-89
2022/01/08 03:24:48;;;;;;;23.25;12.27;;;1.30;95.20;;;;;;4955576;28;20420;-89
2022/01/08 03:27:16;;;;;;;22.58;13.43;;;1.30;95.20;;;;;;4944247;29;20094;-89
2022/01/08 03:29:41;;;;;;;23.30;13.73;;;1.30;95.20;;;;;;4941852;29;20396;-89
2022/01/08 03:32:07;;;;;;;27.27;14.00;;;1.30;95.20;;;;;;4956851;28;20020;-89
2022/01/08 03:34:33;;;;;;;21.70;12.40;;;1.30;95.20;;;;;;4959100;28;20027;-89
2022/01/08 03:37:00;;;;;;;24.98;13.98;;;1.30;95.00;;;;;;4951113;28;20075;-89
2022/01/08 03:39:26;;;;;;;25.23;14.45;;;1.30;94.90;;;;;;4941726;28;20489;-88
2022/01/08 03:41:52;;;;;;;28.50;15.65;;;1.30;94.90;;;;;;4967651;28;20053;-89
2022/01/08 03:44:18;;;;;;;29.23;16.05;;;1.30;95.00;;;;;;4942262;28;20110;-89
2022/01/08 03:46:46;;;;;;;28.05;15.75;;;1.30;95.10;;;;;;4956706;28;20118;-89
2022/01/08 03:51:51;;;;;;;25.70;15.18;;;1.30;95.10;;;;;;4944328;29;20024;-89
2022/01/08 03:54:17;;;;;;;28.02;15.15;;;1.30;95.10;;;;;;4968610;28;20034;-89
2022/01/08 03:56:45;;;;;;;26.25;16.17;;;1.30;94.80;;;;;;4946689;28;20496;-89
2022/01/08 03:59:10;;;;;;;30.67;16.55;;;1.30;94.80;;;;;;4946053;29;20054;-89
2022/01/08 04:01:39;;;;;;;28.42;16.50;;;1.30;94.90;;;;;;4967569;28;20031;-89
2022/01/08 04:04:11;;;;;;;28.08;18.27;;;1.30;94.90;;;;;;4941912;29;20035;-89
2022/01/08 04:06:56;;;;;;;;;;;;;;;;;;;;;
2022/01/08 04:09:22;;;;;;;25.60;15.48;;;1.30;94.90;;;;;;4945798;29;20094;-89
2022/01/08 04:11:49;;;;;;;28.92;15.77;;;1.30;94.90;;;;;;4949304;29;20122;-89
2022/01/08 04:14:16;;;;;;;25.33;15.73;;;1.30;95.00;;;;;;4952851;28;20023;-89
2022/01/08 04:16:51;;;;;;;25.20;14.98;;;1.30;95.00;;;;;;4950135;29;20023;-89
2022/01/08 04:19:34;;;;;;;;;;;;;;;;;;;;;
2022/01/08 04:24:59;;;;;;;26.25;15.65;;;1.30;95.20;;;;;;4937287;29;20436;-89
2022/01/08 04:27:38;;;;;;;;;;;;;;;;;;;;;
2022/01/08 04:30:05;;;;;;;26.65;15.50;;;1.30;95.20;;;;;;4941003;29;20050;-89
2022/01/08 04:32:41;;;;;;;26.83;15.20;;;1.30;95.20;;;;;;4937139;29;20028;-89
2022/01/08 04:35:07;;;;;;;27.60;16.05;;;1.30;95.30;;;;;;4961062;28;20023;-89
2022/01/08 04:37:32;;;;;;;25.02;13.82;;;1.30;95.30;;;;;;4937918;28;20034;-89
2022/01/08 04:40:01;;;;;;;26.38;16.23;;;1.30;95.20;;;;;;4944014;29;20122;-89
2022/01/08 04:42:28;;;;;;;23.63;14.70;;;1.30;95.20;;;;;;4952249;28;20024;-89
2022/01/08 04:44:55;;;;;;;25.38;15.43;;;1.30;95.20;;;;;;4937066;29;20440;-90
2022/01/08 04:47:30;;;;;;;28.60;15.77;;;1.30;95.30;;;;;;4951557;28;20642;-90
2022/01/08 04:49:56;;;;;;;27.15;14.57;;;1.30;95.20;;;;;;4944374;29;20119;-89
2022/01/08 04:52:26;;;;;;;29.65;15.23;;;1.30;95.30;;;;;;4960523;28;20114;-90
2022/01/08 04:54:52;;;;;;;29.23;14.65;;;1.30;95.30;;;;;;4967071;28;20043;-90
2022/01/08 04:57:30;;;;;;;25.02;14.68;;;1.30;95.30;;;;;;4951504;28;20046;-90
2022/01/08 04:59:56;;;;;;;29.02;15.02;;;1.30;95.30;;;;;;4949332;28;20806;-89
2022/01/08 05:02:21;;;;;;;27.67;14.13;;;1.30;95.30;;;;;;4941207;28;20075;-89
2022/01/08 05:04:56;;;;;;;23.77;14.05;;;1.30;95.20;;;;;;4944148;28;20039;-89
2022/01/08 05:07:28;;;;;;;22.48;13.68;;;1.30;95.10;;;;;;4943881;28;20023;-89
2022/01/08 05:09:59;;;;;;;25.25;14.60;;;1.30;95.00;;;;;;4957870;28;20020;-90
2022/01/08 05:12:32;;;;;;;26.77;14.63;;;1.30;95.10;;;;;;4956170;28;20081;-89
2022/01/08 05:15:00;;;;;;;21.73;12.90;;;1.30;95.10;;;;;;4946405;29;20050;-89
2022/01/08 05:17:31;;;;;;;22.10;12.95;;;1.30;95.20;;;;;;4937903;28;20051;-89
2022/01/08 05:20:03;;;;;;;23.35;13.75;;;1.30;95.20;;;;;;4945598;28;20027;-90
2022/01/08 05:23:11;;;;;;;;;;;;;;;;;;;;;
2022/01/08 05:25:27;;;;;;;21.27;13.02;;;1.40;95.30;;;;;;4933589;29;20054;-90
2022/01/08 05:27:59;;;;;;;25.85;13.93;;;1.30;95.30;;;;;;4940684;28;20503;-90
2022/01/08 05:30:26;;;;;;;25.23;13.02;;;1.40;95.20;;;;;;4954404;28;22584;-90
2022/01/08 05:32:57;;;;;;;23.67;12.98;;;1.40;95.10;;;;;;4957386;28;20031;-90
2022/01/08 05:35:45;;;;;;;21.38;12.85;;;1.40;95.00;;;;;;4965740;28;20042;-90
2022/01/08 05:38:10;;;;;;;22.38;12.98;;;1.40;95.00;;;;;;4942087;29;20043;-90
2022/01/08 05:40:40;;;;;;;21.55;13.80;;;1.40;95.10;;;;;;4944863;28;20042;-90
2022/01/08 05:43:15;;;;;;;20.42;12.98;;;1.40;94.90;;;;;;4958010;28;20047;-90
2022/01/08 05:46:01;;;;;;;20.90;12.13;;;1.40;94.90;;;;;;4938398;29;20139;-90
2022/01/08 05:48:27;;;;;;;23.38;12.40;;;1.50;94.90;;;;;;4935637;29;20024;-90
2022/01/08 05:50:54;;;;;;;26.75;13.93;;;1.50;94.90;;;;;;4957972;28;20110;-90
2022/01/08 05:53:30;;;;;;;22.08;13.52;;;1.50;94.90;;;;;;4961820;28;20325;-90
2022/01/08 05:56:04;;;;;;;23.70;13.85;;;1.40;94.90;;;;;;4948695;28;20035;-90
2022/01/08 05:58:32;;;;;;;23.48;12.80;;;1.50;94.90;;;;;;4951632;28;20034;-90
2022/01/08 06:03:43;;;;;;;23.05;13.60;;;1.50;95.00;;;;;;4946197;29;20031;-90
2022/01/08 06:06:09;;;;;;;26.80;13.75;;;1.50;95.10;;;;;;4947151;29;20027;-89
2022/01/08 06:08:37;;;;;;;26.85;13.82;;;1.50;95.10;;;;;;4940397;29;20106;-90
2022/01/08 06:11:05;;;;;;;20.58;13.05;;;1.50;95.10;;;;;;4964179;28;20016;-90
2022/01/08 06:13:33;;;;;;;25.73;14.43;;;1.50;95.20;;;;;;4949464;28;20087;-90
2022/01/08 06:16:07;;;;;;;25.33;14.82;;;1.50;95.20;;;;;;4954467;28;20036;-90
2022/01/08 06:18:36;;;;;;;23.30;14.07;;;1.50;95.20;;;;;;4964941;28;20365;-90
2022/01/08 06:21:05;;;;;;;24.63;14.25;;;1.50;95.20;;;;;;4947870;28;20024;-90
2022/01/08 06:23:45;;;;;;;22.33;13.90;;;1.50;95.20;;;;;;4946475;29;20039;-90
2022/01/08 06:26:13;;;;;;;27.15;13.80;;;1.50;95.10;;;;;;4950997;28;20043;-90
2022/01/08 06:28:41;;;;;;;22.58;13.93;;;1.50;95.10;;;;;;4952566;28;20016;-89
2022/01/08 06:31:06;;;;;;;21.63;13.32;;;1.60;95.20;;;;;;4948062;28;20030;-89
2022/01/08 06:33:51;;;;;;;23.13;14.15;;;1.50;95.20;;;;;;4941760;29;20476;-89
2022/01/08 06:36:47;;;;;;;;;;;;;;;;;;;;;
2022/01/08 06:39:14;;;;;;;27.08;14.32;;;1.60;95.30;;;;;;4946887;29;20407;-89
2022/01/08 06:41:48;;;;;;;27.88;14.27;;;1.60;95.30;;;;;;4953555;29;20042;-89
2022/01/08 06:44:14;;;;;;;21.15;13.65;;;1.60;95.20;;;;;;4951244;28;20023;-89
2022/01/08 06:46:51;;;;;;;25.05;15.63;;;1.60;95.10;;;;;;4949960;28;20031;-89
2022/01/08 06:49:20;;;;;;;25.30;14.15;;;1.60;95.10;;;;;;4961328;28;20082;-89
2022/01/08 06:51:50;;;;;;;23.65;14.60;;;1.60;94.90;;;;;;4959861;28;20456;-89
2022/01/08 06:54:26;;;;;;;26.75;15.35;;;1.60;94.90;;;;;;4959365;28;20030;-89
2022/01/08 06:56:57;;;;;;;25.52;14.75;;;1.60;94.90;;;;;;4954473;28;20121;-89
2022/01/08 06:59:32;;;;;;;24.98;14.90;;;1.60;95.00;;;;;;4954284;28;20019;-89
2022/01/08 07:01:58;;;;;;;23.67;14.50;;;1.60;95.10;;;;;;4965749;28;20487;-89
2022/01/08 07:04:24;;;;;;;28.63;15.68;;;1.60;95.00;;;;;;4948868;28;20026;-89
2022/01/08 07:06:58;;;;;;;26.23;16.08;;;1.60;95.00;;;;;;4967253;28;20059;-89
2022/01/08 07:09:23;;;;;;;25.63;15.43;;;1.60;95.00;;;;;;4951753;29;20490;-89
2022/01/08 07:11:51;;;;;;;24.30;14.95;;;1.50;95.00;;;;;;4961373;28;20031;-89
2022/01/08 07:14:24;;;;;;;26.77;15.82;;;1.50;95.00;;;;;;4942561;28;20059;-89
2022/01/08 07:16:54;;;;;;;28.55;16.73;;;1.60;95.00;;;;;;4953581;28;20028;-89
2022/01/08 07:19:20;;;;;;;28.85;16.38;;;1.50;95.10;;;;;;4962847;28;20055;-89
2022/01/08 07:21:55;;;;;;;27.10;16.30;;;1.50;95.10;;;;;;4950356;28;20035;-89
2022/01/08 07:24:26;;;;;;;27.20;15.60;;;1.50;95.20;;;;;;4948876;28;20369;-90
2022/01/08 07:26:57;;;;;;;27.65;16.05;;;1.50;95.20;;;;;;4950584;29;20050;-89
2022/01/08 07:29:27;;;;;;;;;;;1.40;95.20;;;;;;4963750;28;20158;-90
2022/01/08 07:31:53;;;;;;;27.25;15.05;;;1.40;95.20;;;;;;4955756;28;19921;-88
2022/01/08 07:34:18;;;;;;;27.40;16.02;;;1.40;95.20;;;;;;4963726;28;20392;-88
2022/01/08 07:36:46;;;;;;;24.80;15.43;;;1.40;95.20;;;;;;4938300;28;20372;-88
2022/01/08 07:39:12;;;;;;;24.20;16.23;;;1.40;95.20;;;;;;4939920;29;20027;-88
2022/01/08 07:41:37;;;;;;;33.00;16.38;;;1.40;95.20;;;;;;4956107;28;20031;-88
2022/01/08 07:44:03;;;;;;;28.85;17.35;;;1.40;95.20;;;;;;4958802;28;20086;-88
2022/01/08 07:46:28;;;;;;;31.30;16.92;;;1.40;95.10;;;;;;4946646;29;20031;-88
2022/01/08 07:48:54;;;;;;;27.05;16.65;;;1.40;95.20;;;;;;4968809;28;20035;-88
2022/01/08 07:51:22;;;;;;;29.63;16.70;;;1.40;95.20;;;;;;4961049;28;20035;-88
2022/01/08 07:53:47;;;;;;;29.17;15.63;;;1.40;95.20;;;;;;4943486;28;20562;-88
2022/01/08 07:56:13;;;;;;;29.27;16.75;;;1.40;95.30;;;;;;4949687;29;20023;-88
2022/01/08 07:58:38;;;;;;;30.30;16.08;;;1.40;95.30;;;;;;4941366;28;20035;-88
2022/01/08 08:01:06;;;;;;;29.27;15.30;;;1.50;95.30;;;;;;4952563;28;20042;-88
2022/01/08 08:03:32;;;;;;;32.20;15.82;;;1.50;95.20;;;;;;4956165;28;20078;-88
2022/01/08 08:05:58;;;;;;;33.10;16.48;;;1.50;95.30;;;;;;4962326;28;20031;-88
2022/01/08 08:08:23;;;;;;;27.02;15.70;;;1.50;95.20;;;;;;4958266;28;20468;-88
2022/01/08 08:10:50;;;;;;;25.55;16.10;;;1.50;95.30;;;;;;4953513;28;20031;-88
2022/01/08 08:13:17;;;;;;;26.30;15.77;;;1.50;95.20;;;;;;4943304;29;20028;-88
2022/01/08 08:15:43;;;;;;;23.27;15.13;;;1.50;95.30;;;;;;4949506;29;20034;-88
2022/01/08 08:18:09;;;;;;;29.48;15.85;;;1.50;95.30;;;;;;4956774;28;20102;-89
2022/01/08 08:20:35;;;;;;;30.98;15.68;;;1.60;95.30;;;;;;4957854;28;20027;-89
2022/01/08 08:23:00;;;;;;;25.42;15.25;;;1.60;95.30;;;;;;4946273;28;20039;-89
2022/01/08 08:25:26;;;;;;;27.45;15.23;;;1.60;95.20;;;;;;4952454;28;20083;-89
2022/01/08 08:27:51;;;;;;;30.17;15.82;;;1.60;95.20;;;;;;4966820;28;20427;-89
2022/01/08 08:30:17;;;;;;;24.45;15.15;;;1.60;95.10;;;;;;4954841;28;20094;-89
2022/01/08 08:32:42;;;;;;;24.77;16.10;;;1.60;95.10;;;;;;4953998;29;20031;-89
2022/01/08 08:35:09;;;;;;;24.60;15.82;;;1.60;95.10;;;;;;4939018;28;20087;-89
2022/01/08 08:37:37;;;;;;;27.42;15.35;;;1.70;95.20;;;;;;4943833;29;20034;-89
2022/01/08 08:40:07;;;;;;;31.08;15.25;;;1.70;95.10;;;;;;4942833;28;20086;-89
2022/01/08 08:42:33;;;;;;;26.65;16.48;;;1.70;95.10;;;;;;4953259;28;20031;-89
2022/01/08 08:45:01;;;;;;;25.02;14.93;;;1.70;95.10;;;;;;4951020;28;20037;-89
2022/01/08 08:47:27;;;;;;;25.08;15.82;;;1.70;95.10;;;;;;4951810;29;20114;-89
2022/01/08 08:49:52;;;;;;;26.13;15.50;;;1.70;95.10;;;;;;4947349;28;20167;-89
2022/01/08 08:52:18;;;;;;;33.63;16.15;;;1.70;95.00;;;;;;4962274;28;20086;-89
2022/01/08 08:54:43;;;;;;;25.75;15.75;;;1.60;95.00;;;;;;4945971;28;20036;-89
2022/01/08 08:57:10;;;;;;;24.38;15.73;;;1.60;95.00;;;;;;4963934;28;20027;-89
2022/01/08 08:59:37;;;;;;;24.20;14.07;;;1.70;95.00;;;;;;4949761;29;20078;-89
2022/01/08 09:02:02;;;;;;;24.15;14.23;;;1.70;94.90;;;;;;4945427;28;20035;-90
2022/01/08 09:04:28;;;;;;;19.58;12.38;;;1.70;94.80;;;;;;4951737;28;20082;-90
2022/01/08 09:06:57;;;;;;;25.17;16.02;;;1.80;94.60;;;;;;4959658;28;20031;-90
2022/01/08 09:09:23;;;;;;;27.55;15.70;;;1.90;94.60;;;;;;4947167;29;20386;-90
2022/01/08 09:11:48;;;;;;;26.75;14.85;;;1.80;94.70;;;;;;4949587;28;20031;-90
2022/01/08 09:14:14;;;;;;;27.10;14.30;;;1.80;94.60;;;;;;4963732;28;20122;-89
2022/01/08 09:16:47;;;;;;;25.20;13.98;;;1.80;94.50;;;;;;4944653;29;20086;-89
2022/01/08 09:19:12;;;;;;;22.85;13.77;;;1.80;94.50;;;;;;4960576;28;20019;-89
2022/01/08 09:21:38;;;;;;;23.48;15.40;;;1.80;94.20;;;;;;4949053;28;20039;-89
2022/01/08 09:24:04;;;;;;;22.13;12.60;;;2.00;94.10;;;;;;4947585;28;20341;-89
2022/01/08 09:26:31;;;;;;;22.10;13.88;;;1.90;94.00;;;;;;4960678;28;20027;-89
2022/01/08 09:28:57;;;;;;;22.23;13.32;;;1.90;94.00;;;;;;4958694;28;20107;-89
2022/01/08 09:31:23;;;;;;;19.35;12.13;;;2.00;94.10;;;;;;4952771;28;20106;-89
2022/01/08 09:33:49;;;;;;;19.90;12.35;;;1.90;93.90;;;;;;4950908;28;20027;-90
2022/01/08 09:36:16;;;;;;;18.05;11.70;;;1.90;93.90;;;;;;4938781;28;20063;-90
2022/01/08 09:38:42;;;;;;;22.27;11.20;;;1.80;94.10;;;;;;4940993;28;20043;-89
2022/01/08 09:41:08;;;;;;;21.10;12.50;;;1.80;94.10;;;;;;4957407;28;20548;-90
2022/01/08 09:43:35;;;;;;;20.38;11.18;;;1.90;94.00;;;;;;4964618;28;20051;-90
2022/01/08 09:46:00;;;;;;;18.35;11.65;;;1.90;94.00;;;;;;4945742;28;20098;-90
2022/01/08 09:48:26;;;;;;;20.35;12.18;;;1.90;94.10;;;;;;4958461;28;20027;-90
2022/01/08 09:50:51;;;;;;;22.08;13.45;;;1.90;94.00;;;;;;4946060;28;20024;-89
2022/01/08 09:53:17;;;;;;;25.10;13.23;;;2.00;94.10;;;;;;4963294;28;20046;-89
2022/01/08 09:55:42;;;;;;;27.73;14.18;;;2.00;94.10;;;;;;4956363;28;20114;-89
2022/01/08 09:58:09;;;;;;;21.45;13.75;;;1.90;94.10;;;;;;4951198;29;20034;-89
2022/01/08 10:00:36;;;;;;;20.13;11.80;;;2.10;94.10;;;;;;4950234;28;20027;-90
2022/01/08 10:03:16;;;;;;;22.30;12.55;;;2.20;94.00;;;;;;4950620;28;20039;-89
2022/01/08 10:05:48;;;;;;;25.90;14.23;;;2.30;93.80;;;;;;4946454;29;20027;-89
2022/01/08 10:08:16;;;;;;;19.25;12.65;;;2.30;93.50;;;;;;4941628;29;20488;-89
2022/01/08 10:10:57;;;;;;;20.88;12.38;;;2.30;93.30;;;;;;4955858;29;20063;-89
2022/01/08 10:13:29;;;;;;;23.38;14.25;;;2.30;93.50;;;;;;4949157;29;20020;-90
2022/01/08 10:18:43;;;;;;;21.50;12.98;;;2.40;93.00;;;;;;4949914;29;20297;-90
2022/01/08 10:21:27;;;;;;;19.45;12.93;;;2.40;92.80;;;;;;4954253;28;20035;-89
2022/01/08 10:23:58;;;;;;;18.73;13.23;;;2.60;92.80;;;;;;4949568;29;20032;-89
2022/01/08 10:26:31;;;;;;;20.83;12.57;;;2.70;92.80;;;;;;4945192;28;20046;-89
2022/01/08 10:29:07;;;;;;;21.20;12.38;;;2.60;92.20;;;;;;4946158;28;20031;-89
2022/01/08 10:31:40;;;;;;;20.02;12.98;;;2.70;92.20;;;;;;4950511;28;20118;-89
2022/01/08 10:34:14;;;;;;;19.20;11.88;;;2.70;92.20;;;;;;4954934;28;20046;-89
2022/01/08 10:36:57;;;;;;;20.98;12.15;;;2.70;91.80;;;;;;4954975;28;20063;-89
2022/01/08 10:39:30;;;;;;;22.63;12.70;;;2.60;91.90;;;;;;4949017;28;20562;-89
2022/01/08 10:41:58;;;;;;;21.30;13.23;;;2.80;92.10;;;;;;4957335;28;20038;-89
2022/01/08 10:44:25;;;;;;;19.50;12.85;;;2.90;91.70;;;;;;4950508;28;20035;-89
2022/01/08 10:47:02;;;;;;;23.25;12.50;;;3.10;91.60;;;;;;4947873;28;20130;-89
2022/01/08 10:50:05;;;;;;;18.33;12.25;;;3.10;90.90;;;;;;4961257;28;20024;-88
2022/01/08 10:52:47;;;;;;;22.58;12.23;;;3.00;90.90;;;;;;4943959;28;20038;-89
2022/01/08 10:55:13;;;;;;;18.65;11.10;;;3.00;91.20;;;;;;4947968;29;20023;-88
2022/01/08 10:57:41;;;;;;;18.50;12.50;;;2.90;91.30;;;;;;4945006;28;20231;-88
2022/01/08 11:00:13;;;;;;;19.60;12.18;;;2.90;91.40;;;;;;4955681;28;20430;-89
2022/01/08 11:02:41;;;;;;;21.85;12.27;;;2.90;91.20;;;;;;4951871;28;20035;-88
2022/01/08 11:05:08;;;;;;;19.88;12.38;;;2.90;91.20;;;;;;4967638;28;20091;-89
2022/01/08 11:07:34;;;;;;;16.27;11.38;;;2.90;91.20;;;;;;4966194;28;20035;-88
2022/01/08 11:10:07;;;;;;;19.45;11.70;;;3.00;91.00;;;;;;4954859;29;20031;-88
2022/01/08 11:12:37;;;;;;;23.88;12.43;;;3.10;90.90;;;;;;4940079;28;20067;-88
2022/01/08 11:17:42;;;;;;;22.55;12.45;;;3.20;90.70;;;;;;4938023;28;20032;-88
2022/01/08 11:20:12;;;;;;;17.75;12.13;;;3.30;90.50;;;;;;4945438;29;20031;-88
2022/01/08 11:22:40;;;;;;;18.17;11.77;;;3.30;90.20;;;;;;4951933;28;20027;-88
2022/01/08 11:25:15;;;;;;;21.63;11.48;;;3.30;90.10;;;;;;4959908;28;20038;-89
2022/01/08 11:27:45;;;;;;;22.88;12.32;;;3.30;89.90;;;;;;4938911;28;20055;-88
2022/01/08 11:30:22;;;;;;;17.77;11.52;;;3.40;90.40;;;;;;4946734;29;20608;-88
2022/01/08 11:32:58;;;;;;;19.45;10.52;;;3.40;90.20;;;;;;4940529;28;20024;-88
2022/01/08 11:35:25;;;;;;;19.17;11.63;;;3.30;90.10;;;;;;4966136;28;20047;-87
2022/01/08 11:37:52;;;;;;;22.25;10.23;;;3.40;90.20;;;;;;4947036;28;20067;-88
2022/01/08 11:40:22;;;;;;;19.38;10.40;;;3.50;89.80;;;;;;4960469;28;20027;-88
2022/01/08 11:42:47;;;;;;;19.38;10.32;;;3.70;89.40;;;;;;4960922;28;20042;-88
2022/01/08 11:45:21;;;;;;;15.23;9.52;;;3.80;88.90;;;;;;4949540;28;20027;-88
2022/01/08 11:47:51;;;;;;;16.65;9.45;;;3.80;88.70;;;;;;4948161;29;20046;-88
2022/01/08 11:50:22;;;;;;;17.55;9.45;;;3.80;88.70;;;;;;4952652;29;20027;-88
2022/01/08 11:53:07;;;;;;;;;;;3.70;88.60;;;;;;4956052;28;20547;-88
2022/01/08 11:55:34;;;;;;;17.60;9.30;;;3.60;88.80;;;;;;4952826;29;20013;-87
2022/01/08 11:58:34;;;;;;;16.58;9.40;;;3.60;88.80;;;;;;4950860;28;20043;-87
2022/01/08 12:01:05;;;;;;;13.95;8.40;;;3.70;89.00;;;;;;4914666;29;20067;-87
2022/01/08 12:03:57;;;;;;;15.63;8.73;;;3.70;88.80;;;;;;4950073;29;20044;-87
2022/01/08 12:06:28;;;;;;;13.80;8.70;;;3.70;88.40;;;;;;4949689;28;20032;-88
2022/01/08 12:09:07;;;;;;;17.25;8.38;;;3.80;88.90;;;;;;4945055;29;20023;-88
2022/01/08 12:11:52;;;;;;;16.50;8.02;;;4.00;88.60;;;;;;4945070;29;20508;-87
2022/01/08 12:14:22;;;;;;;16.52;8.45;;;4.00;88.50;;;;;;4940306;29;20027;-88
2022/01/08 12:16:52;;;;;;;16.70;8.05;;;3.90;87.10;;;;;;4946110;28;20435;-87
2022/01/08 12:19:36;;;;;;;18.40;8.77;;;4.00;87.70;;;;;;4951891;29;20031;-87
2022/01/08 12:22:20;;;;;;;14.75;8.55;;;4.10;88.20;;;;;;4948979;29;20392;-87
2022/01/08 12:24:51;;;;;;;14.77;7.32;;;4.10;87.60;;;;;;4948763;28;20195;-88
2022/01/08 12:27:39;;;;;;;14.70;8.18;;;4.10;87.80;;;;;;4943950;28;20043;-88
2022/01/08 12:30:27;;;;;;;13.95;7.57;;;4.10;87.90;;;;;;4949997;29;20055;-88
2022/01/08 12:33:14;;;;;;;14.38;7.30;;;4.00;87.40;;;;;;4947189;28;20480;-88
2022/01/08 12:35:40;;;;;;;16.02;8.00;;;3.90;87.20;;;;;;4948131;29;20031;-89
2022/01/08 12:38:31;;;;;;;13.63;7.57;;;4.00;87.40;;;;;;4958064;28;20368;-88
2022/01/08 12:40:57;;;;;;;17.98;7.68;;;3.90;87.50;;;;;;4943369;29;20036;-88
2022/01/08 12:43:31;;;;;;;15.07;7.53;;;4.00;87.90;;;;;;4952856;28;20035;-88
2022/01/08 12:46:13;;;;;;;13.38;7.57;;;4.10;88.10;;;;;;4949017;28;20042;-89
2022/01/08 12:49:05;;;;;;;18.98;8.27;;;4.10;87.60;;;;;;4948786;28;20023;-88
2022/01/08 12:51:44;;;;;;;14.75;7.75;;;4.00;87.80;;;;;;4942226;29;20031;-88
2022/01/08 12:54:10;;;;;;;17.75;7.93;;;4.00;87.40;;;;;;4942422;29;20027;-88
2022/01/08 12:56:44;;;;;;;13.48;7.55;;;4.10;88.20;;;;;;4949937;28;20038;-88
2022/01/08 12:59:10;;;;;;;16.63;7.68;;;4.00;87.80;;;;;;4937681;28;20559;-88
2022/01/08 13:01:37;;;;;;;13.93;7.30;;;4.10;87.80;;;;;;4942838;28;20027;-88
2022/01/08 13:04:03;;;;;;;15.20;7.80;;;4.00;87.60;;;;;;4949267;29;20023;-88
2022/01/08 13:06:36;;;;;;;11.40;6.65;;;4.00;87.70;;;;;;4949566;29;20035;-88
2022/01/08 13:09:08;;;;;;;13.38;7.60;;;4.00;87.20;;;;;;4949565;29;20044;-88
2022/01/08 13:11:38;;;;;;;15.48;8.30;;;4.10;87.60;;;;;;4952396;28;20396;-87
2022/01/08 13:14:14;;;;;;;14.68;7.93;;;4.00;87.80;;;;;;4944748;28;20479;-87
2022/01/08 13:16:44;;;;;;;16.77;7.93;;;4.10;88.10;;;;;;4948860;29;20126;-87
2022/01/08 13:19:12;;;;;;;15.48;8.32;;;4.00;88.10;;;;;;4952262;28;20023;-87
2022/01/08 13:21:46;;;;;;;14.90;8.48;;;4.00;87.80;;;;;;4944084;29;20127;-87
2022/01/08 13:24:22;;;;;;;13.80;7.93;;;4.00;88.30;;;;;;4942984;28;20055;-87
2022/01/08 13:27:00;;;;;;;14.65;7.25;;;3.80;87.70;;;;;;4946068;29;20376;-87
2022/01/08 13:29:36;;;;;;;15.35;8.98;;;3.70;87.90;;;;;;4944891;29;20515;-87
2022/01/08 13:32:07;;;;;;;17.50;8.68;;;3.60;88.60;;;;;;4934624;29;20039;-87
2022/01/08 13:34:42;;;;;;;13.65;8.55;;;3.50;88.50;;;;;;4949716;29;20104;-87
2022/01/08 13:37:26;;;;;;;15.98;7.97;;;3.50;88.90;;;;;;4948235;28;20023;-87
2022/01/08 13:39:57;;;;;;;19.83;9.07;;;3.50;88.70;;;;;;4941192;29;20086;-87
2022/01/08 13:42:36;;;;;;;15.75;9.18;;;3.50;89.20;;;;;;4944014;29;20079;-87
2022/01/08 13:45:17;;;;;;;15.80;8.93;;;3.50;89.10;;;;;;4949528;28;20499;-87
2022/01/08 13:48:10;;;;;;;;;;;3.40;88.90;;;;;;4956753;28;20115;-87
2022/01/08 13:50:53;;;;;;;15.15;9.02;;;3.40;89.20;;;;;;4943689;29;19974;-87
2022/01/08 13:53:21;;;;;;;13.65;9.07;;;3.40;89.50;;;;;;4946211;29;20166;-87
2022/01/08 13:56:13;;;;;;;13.50;8.40;;;3.40;89.20;;;;;;4934559;29;20035;-87
2022/01/08 13:58:47;;;;;;;12.48;8.35;;;3.30;89.40;;;;;;4950610;29;20567;-87
2022/01/08 14:01:20;;;;;;;24.02;9.10;;;3.30;89.50;;;;;;4926982;29;20047;-87
2022/01/08 14:03:52;;;;;;;16.08;9.13;;;3.30;89.50;;;;;;4962919;28;20039;-87
2022/01/08 14:06:27;;;;;;;16.48;8.93;;;3.20;89.80;;;;;;4945525;29;20027;-87